sensor_id;sensor_type;location;lat;lon;timestamp;P1;durP1;ratioP1;P2;durP2;ratioP2
45970;SDS011;31681;48.982;8.394;2023-04-09T00:02:06;6.07;;;5.47;;
45970;SDS011;31681;48.982;8.394;2023-04-09T00:04:33;6.53;;;5.10;;
45970;SDS011;31681;48.982;8.394;2023-04-09T00:06:58;7.82;;;5.45;;
45970;SDS011;31681;48.982;8.394;2023-04-09T00:09:23;6.80;;;5.68;;
45970;SDS011;31681;48.982;8.394;2023-04-09T00:11:49;6.75;;;5.38;;
45970;SDS011;31681;48.982;8.394;2023-04-09T00:14:14;6.18;;;5.00;;
45970;SDS011;31681;48.982;8.394;2023-04-09T00:16:39;7.07;;;5.75;;
45970;SDS011;31681;48.982;8.394;2023-04-09T00:19:05;7.70;;;6.10;;
45970;SDS011;31681;48.982;8.394;2023-04-09T00:21:30;8.35;;;5.32;;
45970;SDS011;31681;48.982;8.394;2023-04-09T00:23:56;6.80;;;5.50;;
45970;SDS011;31681;48.982;8.394;2023-04-09T00:26:21;6.80;;;5.30;;
45970;SDS011;31681;48.982;8.394;2023-04-09T00:28:47;6.40;;;5.75;;
45970;SDS011;31681;48.982;8.394;2023-04-09T00:31:12;7.22;;;5.72;;
45970;SDS011;31681;48.982;8.394;2023-04-09T00:33:37;9.55;;;6.40;;
45970;SDS011;31681;48.982;8.394;2023-04-09T00:36:03;9.45;;;6.53;;
45970;SDS011;31681;48.982;8.394;2023-04-09T00:38:28;8.93;;;6.60;;
45970;SDS011;31681;48.982;8.394;2023-04-09T00:40:53;10.88;;;6.28;;
45970;SDS011;31681;48.982;8.394;2023-04-09T00:43:19;6.60;;;5.72;;
45970;SDS011;31681;48.982;8.394;2023-04-09T00:45:44;7.22;;;5.97;;
45970;SDS011;31681;48.982;8.394;2023-04-09T00:48:11;7.20;;;5.70;;
45970;SDS011;31681;48.982;8.394;2023-04-09T00:50:36;8.52;;;6.38;;
45970;SDS011;31681;48.982;8.394;2023-04-09T00:53:01;10.55;;;6.28;;
45970;SDS011;31681;48.982;8.394;2023-04-09T00:55:27;7.15;;;6.03;;
45970;SDS011;31681;48.982;8.394;2023-04-09T00:57:53;8.43;;;6.50;;
45970;SDS011;31681;48.982;8.394;2023-04-09T01:00:18;7.45;;;5.65;;
45970;SDS011;31681;48.982;8.394;2023-04-09T01:02:43;8.10;;;6.30;;
45970;SDS011;31681;48.982;8.394;2023-04-09T01:05:09;8.32;;;6.28;;
45970;SDS011;31681;48.982;8.394;2023-04-09T01:10:34;10.30;;;6.80;;
45970;SDS011;31681;48.982;8.394;2023-04-09T01:13:22;7.65;;;6.18;;
45970;SDS011;31681;48.982;8.394;2023-04-09T01:15:51;10.02;;;6.00;;
45970;SDS011;31681;48.982;8.394;2023-04-09T01:18:20;8.93;;;6.47;;
45970;SDS011;31681;48.982;8.394;2023-04-09T01:20:57;7.18;;;5.80;;
45970;SDS011;31681;48.982;8.394;2023-04-09T01:23:28;7.93;;;5.93;;
45970;SDS011;31681;48.982;8.394;2023-04-09T01:26:16;7.93;;;6.28;;
45970;SDS011;31681;48.982;8.394;2023-04-09T01:28:48;7.95;;;6.05;;
45970;SDS011;31681;48.982;8.394;2023-04-09T01:31:17;8.98;;;6.05;;
45970;SDS011;31681;48.982;8.394;2023-04-09T01:33:43;9.50;;;6.28;;
45970;SDS011;31681;48.982;8.394;2023-04-09T01:36:09;8.68;;;6.25;;
45970;SDS011;31681;48.982;8.394;2023-04-09T01:38:35;8.57;;;5.90;;
45970;SDS011;31681;48.982;8.394;2023-04-09T01:41:02;9.40;;;6.82;;
45970;SDS011;31681;48.982;8.394;2023-04-09T01:43:27;9.00;;;6.78;;
45970;SDS011;31681;48.982;8.394;2023-04-09T01:45:54;8.48;;;6.32;;
45970;SDS011;31681;48.982;8.394;2023-04-09T01:48:20;8.73;;;6.70;;
45970;SDS011;31681;48.982;8.394;2023-04-09T01:50:46;9.15;;;6.10;;
45970;SDS011;31681;48.982;8.394;2023-04-09T01:53:12;9.55;;;6.70;;
45970;SDS011;31681;48.982;8.394;2023-04-09T01:55:37;8.88;;;6.25;;
45970;SDS011;31681;48.982;8.394;2023-04-09T01:58:02;9.55;;;6.93;;
45970;SDS011;31681;48.982;8.394;2023-04-09T02:00:30;8.95;;;6.72;;
45970;SDS011;31681;48.982;8.394;2023-04-09T02:08:55;7.93;;;6.20;;
45970;SDS011;31681;48.982;8.394;2023-04-09T02:11:22;9.43;;;6.82;;
45970;SDS011;31681;48.982;8.394;2023-04-09T02:13:47;10.07;;;6.88;;
45970;SDS011;31681;48.982;8.394;2023-04-09T02:16:13;10.07;;;6.55;;
45970;SDS011;31681;48.982;8.394;2023-04-09T02:18:39;10.50;;;6.70;;
45970;SDS011;31681;48.982;8.394;2023-04-09T02:21:05;8.57;;;6.20;;
45970;SDS011;31681;48.982;8.394;2023-04-09T02:23:30;8.73;;;6.90;;
45970;SDS011;31681;48.982;8.394;2023-04-09T02:25:59;8.82;;;6.63;;
45970;SDS011;31681;48.982;8.394;2023-04-09T02:28:25;9.30;;;6.80;;
45970;SDS011;31681;48.982;8.394;2023-04-09T02:30:50;10.27;;;6.70;;
45970;SDS011;31681;48.982;8.394;2023-04-09T02:33:16;9.67;;;6.57;;
45970;SDS011;31681;48.982;8.394;2023-04-09T02:35:41;9.20;;;6.57;;
45970;SDS011;31681;48.982;8.394;2023-04-09T02:38:07;10.15;;;6.15;;
45970;SDS011;31681;48.982;8.394;2023-04-09T02:40:38;10.68;;;6.90;;
45970;SDS011;31681;48.982;8.394;2023-04-09T02:43:03;8.60;;;6.10;;
45970;SDS011;31681;48.982;8.394;2023-04-09T02:45:28;9.23;;;6.18;;
45970;SDS011;31681;48.982;8.394;2023-04-09T02:47:54;10.48;;;6.20;;
45970;SDS011;31681;48.982;8.394;2023-04-09T02:50:19;9.05;;;6.47;;
45970;SDS011;31681;48.982;8.394;2023-04-09T02:52:48;10.05;;;5.82;;
45970;SDS011;31681;48.982;8.394;2023-04-09T02:55:13;10.73;;;7.23;;
45970;SDS011;31681;48.982;8.394;2023-04-09T02:57:39;11.25;;;7.20;;
45970;SDS011;31681;48.982;8.394;2023-04-09T03:00:05;10.85;;;6.38;;
45970;SDS011;31681;48.982;8.394;2023-04-09T03:02:31;11.03;;;6.33;;
45970;SDS011;31681;48.982;8.394;2023-04-09T03:04:56;8.73;;;6.20;;
45970;SDS011;31681;48.982;8.394;2023-04-09T03:07:21;9.30;;;6.68;;
45970;SDS011;31681;48.982;8.394;2023-04-09T03:09:47;10.70;;;6.32;;
45970;SDS011;31681;48.982;8.394;2023-04-09T03:12:12;9.80;;;6.40;;
45970;SDS011;31681;48.982;8.394;2023-04-09T03:14:37;10.40;;;6.33;;
45970;SDS011;31681;48.982;8.394;2023-04-09T03:17:03;9.27;;;6.97;;
45970;SDS011;31681;48.982;8.394;2023-04-09T03:19:29;9.20;;;5.97;;
45970;SDS011;31681;48.982;8.394;2023-04-09T03:21:55;9.15;;;6.65;;
45970;SDS011;31681;48.982;8.394;2023-04-09T03:24:24;8.03;;;5.63;;
45970;SDS011;31681;48.982;8.394;2023-04-09T03:26:49;11.52;;;6.80;;
45970;SDS011;31681;48.982;8.394;2023-04-09T03:29:15;10.83;;;6.80;;
45970;SDS011;31681;48.982;8.394;2023-04-09T03:31:40;12.18;;;7.05;;
45970;SDS011;31681;48.982;8.394;2023-04-09T03:34:06;10.90;;;6.80;;
45970;SDS011;31681;48.982;8.394;2023-04-09T03:36:32;10.77;;;7.27;;
45970;SDS011;31681;48.982;8.394;2023-04-09T03:39:17;10.52;;;6.65;;
45970;SDS011;31681;48.982;8.394;2023-04-09T03:41:43;10.95;;;6.93;;
45970;SDS011;31681;48.982;8.394;2023-04-09T03:44:14;9.85;;;6.10;;
45970;SDS011;31681;48.982;8.394;2023-04-09T03:46:56;11.43;;;6.82;;
45970;SDS011;31681;48.982;8.394;2023-04-09T03:49:23;10.73;;;6.90;;
45970;SDS011;31681;48.982;8.394;2023-04-09T03:51:48;12.03;;;7.10;;
45970;SDS011;31681;48.982;8.394;2023-04-09T03:54:14;13.88;;;6.78;;
45970;SDS011;31681;48.982;8.394;2023-04-09T03:56:40;11.83;;;6.77;;
45970;SDS011;31681;48.982;8.394;2023-04-09T03:59:08;12.93;;;7.00;;
45970;SDS011;31681;48.982;8.394;2023-04-09T04:01:37;12.10;;;7.07;;
45970;SDS011;31681;48.982;8.394;2023-04-09T04:04:03;11.10;;;6.87;;
45970;SDS011;31681;48.982;8.394;2023-04-09T04:06:34;11.70;;;6.80;;
45970;SDS011;31681;48.982;8.394;2023-04-09T04:09:18;12.57;;;7.77;;
45970;SDS011;31681;48.982;8.394;2023-04-09T04:11:52;13.23;;;7.13;;
45970;SDS011;31681;48.982;8.394;2023-04-09T04:14:20;13.47;;;7.37;;
45970;SDS011;31681;48.982;8.394;2023-04-09T04:16:51;12.67;;;7.37;;
45970;SDS011;31681;48.982;8.394;2023-04-09T04:19:19;12.40;;;6.80;;
45970;SDS011;31681;48.982;8.394;2023-04-09T04:21:48;13.23;;;7.10;;
45970;SDS011;31681;48.982;8.394;2023-04-09T04:24:14;14.60;;;7.20;;
45970;SDS011;31681;48.982;8.394;2023-04-09T04:26:40;13.50;;;7.50;;
45970;SDS011;31681;48.982;8.394;2023-04-09T04:29:06;12.37;;;7.23;;
45970;SDS011;31681;48.982;8.394;2023-04-09T04:31:47;12.03;;;7.63;;
45970;SDS011;31681;48.982;8.394;2023-04-09T04:34:16;13.00;;;7.80;;
45970;SDS011;31681;48.982;8.394;2023-04-09T04:36:45;13.10;;;7.93;;
45970;SDS011;31681;48.982;8.394;2023-04-09T04:39:11;13.00;;;7.87;;
45970;SDS011;31681;48.982;8.394;2023-04-09T04:41:48;11.63;;;7.50;;
45970;SDS011;31681;48.982;8.394;2023-04-09T04:44:19;13.00;;;6.80;;
45970;SDS011;31681;48.982;8.394;2023-04-09T04:46:45;13.53;;;7.47;;
45970;SDS011;31681;48.982;8.394;2023-04-09T04:49:10;13.27;;;7.87;;
45970;SDS011;31681;48.982;8.394;2023-04-09T04:51:43;12.87;;;7.37;;
45970;SDS011;31681;48.982;8.394;2023-04-09T04:54:11;13.73;;;7.27;;
45970;SDS011;31681;48.982;8.394;2023-04-09T04:56:38;11.90;;;7.73;;
45970;SDS011;31681;48.982;8.394;2023-04-09T04:59:12;13.93;;;7.03;;
45970;SDS011;31681;48.982;8.394;2023-04-09T05:01:53;12.60;;;7.60;;
45970;SDS011;31681;48.982;8.394;2023-04-09T05:04:18;13.40;;;7.27;;
45970;SDS011;31681;48.982;8.394;2023-04-09T05:06:44;14.47;;;8.03;;
45970;SDS011;31681;48.982;8.394;2023-04-09T05:09:15;15.73;;;8.13;;
45970;SDS011;31681;48.982;8.394;2023-04-09T05:11:52;13.47;;;8.13;;
45970;SDS011;31681;48.982;8.394;2023-04-09T05:14:19;14.33;;;8.13;;
45970;SDS011;31681;48.982;8.394;2023-04-09T05:16:46;13.60;;;8.10;;
45970;SDS011;31681;48.982;8.394;2023-04-09T05:19:12;17.13;;;8.37;;
45970;SDS011;31681;48.982;8.394;2023-04-09T05:21:37;15.30;;;8.47;;
45970;SDS011;31681;48.982;8.394;2023-04-09T05:24:03;15.73;;;8.33;;
45970;SDS011;31681;48.982;8.394;2023-04-09T05:26:31;18.30;;;8.20;;
45970;SDS011;31681;48.982;8.394;2023-04-09T05:28:57;13.73;;;8.60;;
45970;SDS011;31681;48.982;8.394;2023-04-09T05:31:23;13.60;;;8.40;;
45970;SDS011;31681;48.982;8.394;2023-04-09T05:33:55;14.67;;;8.17;;
45970;SDS011;31681;48.982;8.394;2023-04-09T05:36:30;14.83;;;8.27;;
45970;SDS011;31681;48.982;8.394;2023-04-09T05:38:56;16.37;;;9.03;;
45970;SDS011;31681;48.982;8.394;2023-04-09T05:41:22;16.33;;;8.90;;
45970;SDS011;31681;48.982;8.394;2023-04-09T05:44:03;15.10;;;8.33;;
45970;SDS011;31681;48.982;8.394;2023-04-09T05:46:28;16.23;;;8.80;;
45970;SDS011;31681;48.982;8.394;2023-04-09T05:48:54;15.40;;;8.73;;
45970;SDS011;31681;48.982;8.394;2023-04-09T05:51:21;18.30;;;9.00;;
45970;SDS011;31681;48.982;8.394;2023-04-09T05:53:46;17.93;;;9.43;;
45970;SDS011;31681;48.982;8.394;2023-04-09T05:56:12;17.73;;;8.53;;
45970;SDS011;31681;48.982;8.394;2023-04-09T05:58:45;20.67;;;9.60;;
45970;SDS011;31681;48.982;8.394;2023-04-09T06:01:11;16.70;;;9.00;;
45970;SDS011;31681;48.982;8.394;2023-04-09T06:03:37;16.07;;;9.37;;
45970;SDS011;31681;48.982;8.394;2023-04-09T06:06:02;14.07;;;8.33;;
45970;SDS011;31681;48.982;8.394;2023-04-09T06:08:27;17.13;;;8.73;;
45970;SDS011;31681;48.982;8.394;2023-04-09T06:10:53;16.43;;;8.97;;
45970;SDS011;31681;48.982;8.394;2023-04-09T06:13:18;16.47;;;8.43;;
45970;SDS011;31681;48.982;8.394;2023-04-09T06:15:43;15.87;;;8.73;;
45970;SDS011;31681;48.982;8.394;2023-04-09T06:18:09;14.83;;;8.53;;
45970;SDS011;31681;48.982;8.394;2023-04-09T06:20:34;17.10;;;9.07;;
45970;SDS011;31681;48.982;8.394;2023-04-09T06:22:59;17.00;;;9.00;;
45970;SDS011;31681;48.982;8.394;2023-04-09T06:25:25;16.40;;;9.43;;
45970;SDS011;31681;48.982;8.394;2023-04-09T06:27:50;15.83;;;8.80;;
45970;SDS011;31681;48.982;8.394;2023-04-09T06:30:16;17.50;;;8.90;;
45970;SDS011;31681;48.982;8.394;2023-04-09T06:32:41;16.37;;;9.53;;
45970;SDS011;31681;48.982;8.394;2023-04-09T06:35:06;15.43;;;9.50;;
45970;SDS011;31681;48.982;8.394;2023-04-09T06:37:32;14.13;;;9.20;;
45970;SDS011;31681;48.982;8.394;2023-04-09T06:39:58;15.60;;;9.30;;
45970;SDS011;31681;48.982;8.394;2023-04-09T06:42:23;16.70;;;10.40;;
45970;SDS011;31681;48.982;8.394;2023-04-09T06:44:55;17.20;;;9.70;;
45970;SDS011;31681;48.982;8.394;2023-04-09T06:47:21;14.73;;;9.13;;
45970;SDS011;31681;48.982;8.394;2023-04-09T06:49:46;16.40;;;10.13;;
45970;SDS011;31681;48.982;8.394;2023-04-09T06:52:11;16.33;;;9.40;;
45970;SDS011;31681;48.982;8.394;2023-04-09T06:54:37;16.37;;;9.67;;
45970;SDS011;31681;48.982;8.394;2023-04-09T06:57:02;17.70;;;10.50;;
45970;SDS011;31681;48.982;8.394;2023-04-09T06:59:28;15.97;;;9.53;;
45970;SDS011;31681;48.982;8.394;2023-04-09T07:01:53;15.43;;;9.90;;
45970;SDS011;31681;48.982;8.394;2023-04-09T07:04:18;15.13;;;10.00;;
45970;SDS011;31681;48.982;8.394;2023-04-09T07:06:43;18.27;;;11.37;;
45970;SDS011;31681;48.982;8.394;2023-04-09T07:09:09;14.90;;;10.27;;
45970;SDS011;31681;48.982;8.394;2023-04-09T07:11:34;16.83;;;10.90;;
45970;SDS011;31681;48.982;8.394;2023-04-09T07:14:00;16.13;;;11.27;;
45970;SDS011;31681;48.982;8.394;2023-04-09T07:16:25;17.60;;;12.17;;
45970;SDS011;31681;48.982;8.394;2023-04-09T07:18:50;20.37;;;12.30;;
45970;SDS011;31681;48.982;8.394;2023-04-09T07:21:15;17.30;;;12.23;;
45970;SDS011;31681;48.982;8.394;2023-04-09T07:23:41;17.15;;;12.23;;
45970;SDS011;31681;48.982;8.394;2023-04-09T07:26:06;18.48;;;11.75;;
45970;SDS011;31681;48.982;8.394;2023-04-09T07:28:31;16.83;;;12.35;;
45970;SDS011;31681;48.982;8.394;2023-04-09T07:30:57;19.55;;;12.10;;
45970;SDS011;31681;48.982;8.394;2023-04-09T07:33:22;19.25;;;12.25;;
45970;SDS011;31681;48.982;8.394;2023-04-09T07:35:48;18.60;;;11.98;;
45970;SDS011;31681;48.982;8.394;2023-04-09T07:38:14;15.90;;;11.32;;
45970;SDS011;31681;48.982;8.394;2023-04-09T07:40:40;15.50;;;10.50;;
45970;SDS011;31681;48.982;8.394;2023-04-09T07:43:05;17.35;;;11.65;;
45970;SDS011;31681;48.982;8.394;2023-04-09T07:45:31;19.48;;;10.77;;
45970;SDS011;31681;48.982;8.394;2023-04-09T07:47:56;15.50;;;10.20;;
45970;SDS011;31681;48.982;8.394;2023-04-09T07:50:22;17.50;;;10.65;;
45970;SDS011;31681;48.982;8.394;2023-04-09T07:52:47;16.13;;;10.80;;
45970;SDS011;31681;48.982;8.394;2023-04-09T07:55:12;15.35;;;10.70;;
45970;SDS011;31681;48.982;8.394;2023-04-09T07:57:37;16.60;;;10.85;;
45970;SDS011;31681;48.982;8.394;2023-04-09T08:00:03;17.48;;;11.18;;
45970;SDS011;31681;48.982;8.394;2023-04-09T08:02:38;17.48;;;10.57;;
45970;SDS011;31681;48.982;8.394;2023-04-09T08:05:03;14.32;;;10.00;;
45970;SDS011;31681;48.982;8.394;2023-04-09T08:07:29;15.98;;;10.32;;
45970;SDS011;31681;48.982;8.394;2023-04-09T08:09:54;16.02;;;11.00;;
45970;SDS011;31681;48.982;8.394;2023-04-09T08:12:20;14.15;;;9.90;;
45970;SDS011;31681;48.982;8.394;2023-04-09T08:14:45;14.88;;;10.52;;
45970;SDS011;31681;48.982;8.394;2023-04-09T08:17:11;15.88;;;11.68;;
45970;SDS011;31681;48.982;8.394;2023-04-09T08:19:36;17.48;;;10.93;;
45970;SDS011;31681;48.982;8.394;2023-04-09T08:22:01;16.17;;;10.88;;
45970;SDS011;31681;48.982;8.394;2023-04-09T08:24:27;15.85;;;10.77;;
45970;SDS011;31681;48.982;8.394;2023-04-09T08:26:52;16.50;;;10.82;;
45970;SDS011;31681;48.982;8.394;2023-04-09T08:29:18;15.73;;;10.45;;
45970;SDS011;31681;48.982;8.394;2023-04-09T08:31:43;13.70;;;10.10;;
45970;SDS011;31681;48.982;8.394;2023-04-09T08:34:09;16.13;;;10.48;;
45970;SDS011;31681;48.982;8.394;2023-04-09T08:36:34;16.02;;;10.40;;
45970;SDS011;31681;48.982;8.394;2023-04-09T08:39:00;15.50;;;10.75;;
45970;SDS011;31681;48.982;8.394;2023-04-09T08:41:26;16.48;;;11.27;;
45970;SDS011;31681;48.982;8.394;2023-04-09T08:43:53;16.65;;;11.00;;
45970;SDS011;31681;48.982;8.394;2023-04-09T08:46:19;16.35;;;10.73;;
45970;SDS011;31681;48.982;8.394;2023-04-09T08:48:44;13.00;;;10.10;;
45970;SDS011;31681;48.982;8.394;2023-04-09T08:51:17;15.80;;;10.18;;
45970;SDS011;31681;48.982;8.394;2023-04-09T08:53:47;14.05;;;9.88;;
45970;SDS011;31681;48.982;8.394;2023-04-09T08:56:14;14.73;;;10.20;;
45970;SDS011;31681;48.982;8.394;2023-04-09T08:58:43;15.30;;;10.18;;
45970;SDS011;31681;48.982;8.394;2023-04-09T09:01:19;14.23;;;10.30;;
45970;SDS011;31681;48.982;8.394;2023-04-09T09:03:58;14.98;;;10.95;;
45970;SDS011;31681;48.982;8.394;2023-04-09T09:06:24;11.55;;;8.00;;
45970;SDS011;31681;48.982;8.394;2023-04-09T09:11:26;10.38;;;7.13;;
45970;SDS011;31681;48.982;8.394;2023-04-09T09:14:02;10.15;;;7.28;;
45970;SDS011;31681;48.982;8.394;2023-04-09T09:16:27;10.45;;;7.20;;
45970;SDS011;31681;48.982;8.394;2023-04-09T09:18:53;9.70;;;7.22;;
45970;SDS011;31681;48.982;8.394;2023-04-09T09:21:19;10.82;;;6.85;;
45970;SDS011;31681;48.982;8.394;2023-04-09T09:23:45;8.15;;;6.28;;
45970;SDS011;31681;48.982;8.394;2023-04-09T09:28:42;6.63;;;5.15;;
45970;SDS011;31681;48.982;8.394;2023-04-09T09:31:08;5.97;;;5.18;;
45970;SDS011;31681;48.982;8.394;2023-04-09T09:33:33;5.40;;;4.68;;
45970;SDS011;31681;48.982;8.394;2023-04-09T09:35:59;5.50;;;4.35;;
45970;SDS011;31681;48.982;8.394;2023-04-09T09:38:27;5.65;;;4.40;;
45970;SDS011;31681;48.982;8.394;2023-04-09T09:40:53;6.13;;;4.68;;
45970;SDS011;31681;48.982;8.394;2023-04-09T09:43:18;6.57;;;4.70;;
45970;SDS011;31681;48.982;8.394;2023-04-09T09:45:45;5.55;;;3.88;;
45970;SDS011;31681;48.982;8.394;2023-04-09T09:48:10;3.20;;;2.90;;
45970;SDS011;31681;48.982;8.394;2023-04-09T09:50:39;2.92;;;2.58;;
45970;SDS011;31681;48.982;8.394;2023-04-09T09:53:09;5.47;;;4.07;;
45970;SDS011;31681;48.982;8.394;2023-04-09T09:55:40;5.50;;;3.92;;
45970;SDS011;31681;48.982;8.394;2023-04-09T09:58:18;4.70;;;4.00;;
45970;SDS011;31681;48.982;8.394;2023-04-09T10:00:47;4.30;;;3.70;;
45970;SDS011;31681;48.982;8.394;2023-04-09T10:03:24;4.53;;;3.80;;
45970;SDS011;31681;48.982;8.394;2023-04-09T10:05:49;4.15;;;3.75;;
45970;SDS011;31681;48.982;8.394;2023-04-09T10:08:15;4.57;;;3.50;;
45970;SDS011;31681;48.982;8.394;2023-04-09T10:10:41;4.18;;;3.28;;
45970;SDS011;31681;48.982;8.394;2023-04-09T10:13:08;3.88;;;3.28;;
45970;SDS011;31681;48.982;8.394;2023-04-09T10:15:34;4.43;;;3.88;;
45970;SDS011;31681;48.982;8.394;2023-04-09T10:18:00;4.47;;;3.72;;
45970;SDS011;31681;48.982;8.394;2023-04-09T10:20:31;4.90;;;3.97;;
45970;SDS011;31681;48.982;8.394;2023-04-09T10:22:57;5.30;;;3.67;;
45970;SDS011;31681;48.982;8.394;2023-04-09T10:25:27;6.50;;;4.80;;
45970;SDS011;31681;48.982;8.394;2023-04-09T10:27:59;5.63;;;3.85;;
45970;SDS011;31681;48.982;8.394;2023-04-09T10:30:34;6.25;;;4.60;;
45970;SDS011;31681;48.982;8.394;2023-04-09T10:33:12;5.07;;;3.60;;
45970;SDS011;31681;48.982;8.394;2023-04-09T10:35:38;7.85;;;5.70;;
45970;SDS011;31681;48.982;8.394;2023-04-09T10:38:06;6.05;;;4.55;;
45970;SDS011;31681;48.982;8.394;2023-04-09T10:40:31;5.15;;;4.07;;
45970;SDS011;31681;48.982;8.394;2023-04-09T10:42:57;3.13;;;2.65;;
45970;SDS011;31681;48.982;8.394;2023-04-09T10:45:23;3.33;;;2.78;;
45970;SDS011;31681;48.982;8.394;2023-04-09T10:47:50;3.20;;;2.90;;
45970;SDS011;31681;48.982;8.394;2023-04-09T10:50:19;3.45;;;2.75;;
45970;SDS011;31681;48.982;8.394;2023-04-09T10:52:45;3.60;;;3.05;;
45970;SDS011;31681;48.982;8.394;2023-04-09T10:55:28;3.40;;;3.00;;
45970;SDS011;31681;48.982;8.394;2023-04-09T10:57:54;4.03;;;3.05;;
45970;SDS011;31681;48.982;8.394;2023-04-09T11:00:19;3.78;;;3.20;;
45970;SDS011;31681;48.982;8.394;2023-04-09T11:02:48;4.13;;;3.20;;
45970;SDS011;31681;48.982;8.394;2023-04-09T11:05:26;3.65;;;3.25;;
45970;SDS011;31681;48.982;8.394;2023-04-09T11:10:50;4.80;;;3.72;;
45970;SDS011;31681;48.982;8.394;2023-04-09T11:13:18;4.78;;;3.63;;
45970;SDS011;31681;48.982;8.394;2023-04-09T11:15:45;6.28;;;3.80;;
45970;SDS011;31681;48.982;8.394;2023-04-09T11:18:30;4.35;;;3.58;;
45970;SDS011;31681;48.982;8.394;2023-04-09T11:20:58;5.70;;;3.72;;
45970;SDS011;31681;48.982;8.394;2023-04-09T11:23:24;5.05;;;3.38;;
45970;SDS011;31681;48.982;8.394;2023-04-09T11:25:50;3.95;;;3.45;;
45970;SDS011;31681;48.982;8.394;2023-04-09T11:28:16;5.55;;;3.85;;
45970;SDS011;31681;48.982;8.394;2023-04-09T11:30:41;4.28;;;3.47;;
45970;SDS011;31681;48.982;8.394;2023-04-09T11:33:07;4.18;;;3.40;;
45970;SDS011;31681;48.982;8.394;2023-04-09T11:35:33;3.85;;;3.45;;
45970;SDS011;31681;48.982;8.394;2023-04-09T11:38:00;4.05;;;3.55;;
45970;SDS011;31681;48.982;8.394;2023-04-09T11:40:26;4.45;;;3.20;;
45970;SDS011;31681;48.982;8.394;2023-04-09T11:42:53;5.20;;;3.90;;
45970;SDS011;31681;48.982;8.394;2023-04-09T11:45:23;7.03;;;4.78;;
45970;SDS011;31681;48.982;8.394;2023-04-09T11:47:49;5.28;;;4.22;;
45970;SDS011;31681;48.982;8.394;2023-04-09T11:50:15;4.78;;;4.28;;
45970;SDS011;31681;48.982;8.394;2023-04-09T11:52:41;5.10;;;3.60;;
45970;SDS011;31681;48.982;8.394;2023-04-09T11:55:07;4.82;;;3.45;;
45970;SDS011;31681;48.982;8.394;2023-04-09T12:00:09;4.82;;;3.25;;
45970;SDS011;31681;48.982;8.394;2023-04-09T12:02:40;5.03;;;3.47;;
45970;SDS011;31681;48.982;8.394;2023-04-09T12:05:07;4.10;;;3.22;;
45970;SDS011;31681;48.982;8.394;2023-04-09T12:07:33;5.00;;;3.85;;
45970;SDS011;31681;48.982;8.394;2023-04-09T12:10:02;4.32;;;3.30;;
45970;SDS011;31681;48.982;8.394;2023-04-09T12:12:27;4.05;;;3.38;;
45970;SDS011;31681;48.982;8.394;2023-04-09T12:14:53;4.20;;;3.50;;
45970;SDS011;31681;48.982;8.394;2023-04-09T12:17:21;3.85;;;3.00;;
45970;SDS011;31681;48.982;8.394;2023-04-09T12:19:47;3.80;;;2.90;;
45970;SDS011;31681;48.982;8.394;2023-04-09T12:22:13;4.25;;;3.50;;
45970;SDS011;31681;48.982;8.394;2023-04-09T12:24:38;4.65;;;3.33;;
45970;SDS011;31681;48.982;8.394;2023-04-09T12:27:03;3.90;;;3.20;;
45970;SDS011;31681;48.982;8.394;2023-04-09T12:29:29;3.95;;;3.55;;
45970;SDS011;31681;48.982;8.394;2023-04-09T12:31:54;4.20;;;3.40;;
45970;SDS011;31681;48.982;8.394;2023-04-09T12:34:20;4.18;;;3.72;;
45970;SDS011;31681;48.982;8.394;2023-04-09T12:36:45;3.70;;;3.22;;
45970;SDS011;31681;48.982;8.394;2023-04-09T12:39:10;3.67;;;3.30;;
45970;SDS011;31681;48.982;8.394;2023-04-09T12:41:36;4.50;;;3.35;;
45970;SDS011;31681;48.982;8.394;2023-04-09T12:44:01;4.40;;;3.63;;
45970;SDS011;31681;48.982;8.394;2023-04-09T12:46:27;4.95;;;3.40;;
45970;SDS011;31681;48.982;8.394;2023-04-09T12:48:52;3.50;;;3.20;;
45970;SDS011;31681;48.982;8.394;2023-04-09T12:51:17;3.58;;;3.17;;
45970;SDS011;31681;48.982;8.394;2023-04-09T12:53:43;3.45;;;2.95;;
45970;SDS011;31681;48.982;8.394;2023-04-09T12:56:08;3.90;;;3.22;;
45970;SDS011;31681;48.982;8.394;2023-04-09T12:58:33;3.70;;;3.30;;
45970;SDS011;31681;48.982;8.394;2023-04-09T13:00:59;3.45;;;3.15;;
45970;SDS011;31681;48.982;8.394;2023-04-09T13:03:25;4.93;;;3.42;;
45970;SDS011;31681;48.982;8.394;2023-04-09T13:05:51;4.03;;;3.15;;
45970;SDS011;31681;48.982;8.394;2023-04-09T13:08:17;3.20;;;2.88;;
45970;SDS011;31681;48.982;8.394;2023-04-09T13:10:42;3.08;;;2.78;;
45970;SDS011;31681;48.982;8.394;2023-04-09T13:13:08;3.42;;;3.13;;
45970;SDS011;31681;48.982;8.394;2023-04-09T13:15:39;3.17;;;2.83;;
45970;SDS011;31681;48.982;8.394;2023-04-09T13:18:09;3.92;;;3.03;;
45970;SDS011;31681;48.982;8.394;2023-04-09T13:20:34;3.13;;;2.83;;
45970;SDS011;31681;48.982;8.394;2023-04-09T13:23:00;3.75;;;2.78;;
45970;SDS011;31681;48.982;8.394;2023-04-09T13:25:26;3.03;;;2.65;;
45970;SDS011;31681;48.982;8.394;2023-04-09T13:27:51;3.30;;;3.00;;
45970;SDS011;31681;48.982;8.394;2023-04-09T13:30:16;3.28;;;2.97;;
45970;SDS011;31681;48.982;8.394;2023-04-09T13:32:42;3.40;;;3.10;;
45970;SDS011;31681;48.982;8.394;2023-04-09T13:35:07;3.60;;;3.30;;
45970;SDS011;31681;48.982;8.394;2023-04-09T13:37:34;3.95;;;3.08;;
45970;SDS011;31681;48.982;8.394;2023-04-09T13:39:59;3.55;;;2.97;;
45970;SDS011;31681;48.982;8.394;2023-04-09T13:42:25;3.67;;;3.28;;
45970;SDS011;31681;48.982;8.394;2023-04-09T13:44:52;5.18;;;3.40;;
45970;SDS011;31681;48.982;8.394;2023-04-09T13:47:18;4.70;;;3.70;;
45970;SDS011;31681;48.982;8.394;2023-04-09T13:49:43;4.38;;;3.20;;
45970;SDS011;31681;48.982;8.394;2023-04-09T13:52:09;3.88;;;3.05;;
45970;SDS011;31681;48.982;8.394;2023-04-09T13:54:35;3.67;;;3.30;;
45970;SDS011;31681;48.982;8.394;2023-04-09T13:57:00;4.20;;;3.67;;
45970;SDS011;31681;48.982;8.394;2023-04-09T13:59:26;5.20;;;3.55;;
45970;SDS011;31681;48.982;8.394;2023-04-09T14:01:51;4.82;;;3.17;;
45970;SDS011;31681;48.982;8.394;2023-04-09T14:04:16;3.38;;;3.08;;
45970;SDS011;31681;48.982;8.394;2023-04-09T14:06:43;3.90;;;3.20;;
45970;SDS011;31681;48.982;8.394;2023-04-09T14:09:09;3.40;;;3.10;;
45970;SDS011;31681;48.982;8.394;2023-04-09T14:11:34;4.15;;;3.38;;
45970;SDS011;31681;48.982;8.394;2023-04-09T14:13:59;3.92;;;3.40;;
45970;SDS011;31681;48.982;8.394;2023-04-09T14:16:25;4.25;;;3.08;;
45970;SDS011;31681;48.982;8.394;2023-04-09T14:18:52;3.45;;;3.15;;
45970;SDS011;31681;48.982;8.394;2023-04-09T14:21:17;4.10;;;3.67;;
45970;SDS011;31681;48.982;8.394;2023-04-09T14:23:42;3.50;;;3.20;;
45970;SDS011;31681;48.982;8.394;2023-04-09T14:26:08;5.43;;;3.55;;
45970;SDS011;31681;48.982;8.394;2023-04-09T14:28:33;4.03;;;3.63;;
45970;SDS011;31681;48.982;8.394;2023-04-09T14:30:59;3.95;;;3.55;;
45970;SDS011;31681;48.982;8.394;2023-04-09T14:33:25;3.75;;;2.95;;
45970;SDS011;31681;48.982;8.394;2023-04-09T14:35:50;3.58;;;2.83;;
45970;SDS011;31681;48.982;8.394;2023-04-09T14:38:16;3.35;;;2.90;;
45970;SDS011;31681;48.982;8.394;2023-04-09T14:40:42;3.03;;;2.70;;
45970;SDS011;31681;48.982;8.394;2023-04-09T14:43:07;2.80;;;2.50;;
45970;SDS011;31681;48.982;8.394;2023-04-09T14:45:33;3.58;;;3.25;;
45970;SDS011;31681;48.982;8.394;2023-04-09T14:47:58;4.07;;;2.97;;
45970;SDS011;31681;48.982;8.394;2023-04-09T14:50:23;4.90;;;3.45;;
45970;SDS011;31681;48.982;8.394;2023-04-09T14:52:49;4.72;;;3.03;;
45970;SDS011;31681;48.982;8.394;2023-04-09T14:55:14;3.97;;;3.10;;
45970;SDS011;31681;48.982;8.394;2023-04-09T14:57:40;3.30;;;2.92;;
45970;SDS011;31681;48.982;8.394;2023-04-09T15:00:06;4.30;;;3.90;;